Buoy 13569

sailwx.info

Track history (hours):
 
Tides and Currents Weather Stations Pressure Air Temp Water Temp Dewpoint Dewpoint Depression Visibility Wind Speed Wind Dir Waves Ship Positions

Drifting buoy 13569

Last reported at 2015-May-28 07:00 UTC. Time now 2015-May-29 02:08 UTC.
Position N 30°40' W 029°55'.

Barometer 1022.2 mb
Water temperature 21.2 ° C

Date/timePositionNaut miles runAvg speedWind from/ knotsBaromVisibWave heightAir tempDewpointWater temp
2015-May-28 07:00N 30°40' W 029°55'3 2.9 1022.2 21.2
2015-May-28 06:00N 30°42' W 029°54'0 0.0 1022.4 21.2
2015-May-28 05:00N 30°42' W 029°54'0 0.0 1022.4 21.2
2015-May-28 04:00N 30°42' W 029°54'0 0.0 1022.7 21.2
2015-May-27 23:00N 30°42' W 029°54'4 0.2 1024.3 21.3
2015-May-27 07:00N 30°45' W 029°51'0 0.0 1024.3 21.1
2015-May-27 06:00N 30°45' W 029°51'2 0.2 1024.0 21.1
2015-May-26 16:00N 30°47' W 029°49'0 0.4 1025.0 21.4
2015-May-26 15:00N 30°47' W 029°49'0 0.0 1025.3 21.3
2015-May-26 14:00N 30°47' W 029°49'0 0.2 1025.5 21.2
2015-May-26 12:00N 30°47' W 029°49'1 0.3 1026.0 21.1
2015-May-26 08:00N 30°48' W 029°48'3 0.3 1025.3 21.0
2015-May-25 22:00N 30°47' W 029°44'1 0.3 1025.9 21.0
2015-May-25 18:00N 30°47' W 029°43'7 0.3 1025.5 21.2
2015-May-24 19:00N 30°48' W 029°35'1 0.2 1026.5 21.0
2015-May-24 12:00N 30°47' W 029°35'0 0.0 1028.4 20.9
2015-May-24 11:00N 30°47' W 029°35'1 0.8 1028.4 20.8
2015-May-24 10:00N 30°47' W 029°34'2 0.4 1028.4 20.8
2015-May-24 06:00N 30°46' W 029°32'0 0.0 1027.5 20.8
2015-May-24 04:00N 30°46' W 029°32'8 0.4 1027.9 20.8
2015-May-23 08:00N 30°45' W 029°22'0 0.4 1029.9 20.9
2015-May-23 07:00N 30°44' W 029°22'5 0.7 1029.6 20.9
2015-May-22 23:00N 30°42' W 029°17'0 0.0 1031.6 21.0
2015-May-22 22:00N 30°42' W 029°17'0 0.0 1031.3 21.0
2015-May-22 20:00N 30°42' W 029°17'1 0.7 1030.4 21.1
2015-May-22 19:00N 30°42' W 029°16'4 0.3 1030.0 21.1
2015-May-22 07:00N 30°39' W 029°13'2 2.1 1030.6 20.9
2015-May-22 06:00N 30°37' W 029°11'5 0.4 1030.3 20.9
2015-May-21 16:00N 30°34' W 029°07'0 0.0 1029.4 21.1
2015-May-21 15:00N 30°34' W 029°07'8 0.6 1029.6 21.0
2015-May-21 02:00N 30°27' W 029°03'0 0.0 1028.0 20.9
2015-May-20 23:00N 30°27' W 029°03'5 0.4 1028.0 20.9
2015-May-20 10:00N 30°22' W 029°02'3 0.7 1027.3 20.8
2015-May-20 06:00N 30°20' W 028°59'0 0.0 1025.8 20.8
2015-May-20 04:00N 30°20' W 028°59'3 0.3 1025.8 20.8
2015-May-19 19:00N 30°17' W 028°59'0 0.0 1024.8 20.9
2015-May-19 18:00N 30°17' W 028°59'3 0.6 1024.9 20.9
2015-May-19 12:00N 30°14' W 028°58'1 0.8 1025.5 20.8
2015-May-19 11:00N 30°13' W 028°58'1 0.8 1025.5 20.7
2015-May-19 10:00N 30°14' W 028°58'1 1.0 1025.3 20.7
2015-May-19 09:00N 30°13' W 028°57'0 0.0 1025.0 20.7
2015-May-19 07:00N 30°13' W 028°57'0 0.2 1024.0 20.7
2015-May-19 06:00N 30°13' W 028°58'0 0.1 1023.7 20.7
2015-May-19 05:00N 30°13' W 028°58'0 0.0 1023.7 20.7
2015-May-19 04:00N 30°13' W 028°58'3 3.1 1024.0 20.7
2015-May-19 03:00N 30°10' W 028°58'1 0.2 1024.3 20.7
2015-May-18 20:00N 30°09' W 028°57'1 0.6 1023.2 20.8
2015-May-18 18:00N 30°08' W 028°56'0 0.0 1023.0 20.8
2015-May-18 17:00N 30°08' W 028°56'2 0.4 1022.9 20.9
2015-May-18 11:00N 30°06' W 028°56'0 0.0 1023.9 20.7
2015-May-18 10:00N 30°06' W 028°56'0 0.1 1023.7 20.7
2015-May-18 08:00N 30°06' W 028°57'1 0.6 1023.4 20.7
2015-May-18 07:00N 30°06' W 028°56'   1023.0 20.7
Track history (hours):
 
Tides and Currents Weather Stations Pressure Air Temp Water Temp Dewpoint Dewpoint Depression Visibility Wind Speed Wind Dir Waves Ship Positions

Drifting buoy 13569

Last reported at 2015-May-28 07:00 UTC. Time now 2015-May-29 02:08 UTC.
Position N 30°40' W 029°55'.

Barometer 1022.2 mb
Water temperature 21.2 ° C

Date/timePositionNaut miles runAvg speedWind from/ knotsBaromVisibWave heightAir tempDewpointWater temp
2015-May-28 07:00N 30°40' W 029°55'3 2.9 1022.2 21.2
2015-May-28 06:00N 30°42' W 029°54'0 0.0 1022.4 21.2
2015-May-28 05:00N 30°42' W 029°54'0 0.0 1022.4 21.2
2015-May-28 04:00N 30°42' W 029°54'0 0.0 1022.7 21.2
2015-May-27 23:00N 30°42' W 029°54'4 0.2 1024.3 21.3
2015-May-27 07:00N 30°45' W 029°51'0 0.0 1024.3 21.1
2015-May-27 06:00N 30°45' W 029°51'2 0.2 1024.0 21.1
2015-May-26 16:00N 30°47' W 029°49'0 0.4 1025.0 21.4
2015-May-26 15:00N 30°47' W 029°49'0 0.0 1025.3 21.3
2015-May-26 14:00N 30°47' W 029°49'0 0.2 1025.5 21.2
2015-May-26 12:00N 30°47' W 029°49'1 0.3 1026.0 21.1
2015-May-26 08:00N 30°48' W 029°48'3 0.3 1025.3 21.0
2015-May-25 22:00N 30°47' W 029°44'1 0.3 1025.9 21.0
2015-May-25 18:00N 30°47' W 029°43'7 0.3 1025.5 21.2
2015-May-24 19:00N 30°48' W 029°35'1 0.2 1026.5 21.0
2015-May-24 12:00N 30°47' W 029°35'0 0.0 1028.4 20.9
2015-May-24 11:00N 30°47' W 029°35'1 0.8 1028.4 20.8
2015-May-24 10:00N 30°47' W 029°34'2 0.4 1028.4 20.8
2015-May-24 06:00N 30°46' W 029°32'0 0.0 1027.5 20.8
2015-May-24 04:00N 30°46' W 029°32'8 0.4 1027.9 20.8
2015-May-23 08:00N 30°45' W 029°22'0 0.4 1029.9 20.9
2015-May-23 07:00N 30°44' W 029°22'5 0.7 1029.6 20.9
2015-May-22 23:00N 30°42' W 029°17'0 0.0 1031.6 21.0
2015-May-22 22:00N 30°42' W 029°17'0 0.0 1031.3 21.0
2015-May-22 20:00N 30°42' W 029°17'1 0.7 1030.4 21.1
2015-May-22 19:00N 30°42' W 029°16'4 0.3 1030.0 21.1
2015-May-22 07:00N 30°39' W 029°13'2 2.1 1030.6 20.9
2015-May-22 06:00N 30°37' W 029°11'5 0.4 1030.3 20.9
2015-May-21 16:00N 30°34' W 029°07'0 0.0 1029.4 21.1
2015-May-21 15:00N 30°34' W 029°07'8 0.6 1029.6 21.0
2015-May-21 02:00N 30°27' W 029°03'0 0.0 1028.0 20.9
2015-May-20 23:00N 30°27' W 029°03'5 0.4 1028.0 20.9
2015-May-20 10:00N 30°22' W 029°02'3 0.7 1027.3 20.8
2015-May-20 06:00N 30°20' W 028°59'0 0.0 1025.8 20.8
2015-May-20 04:00N 30°20' W 028°59'3 0.3 1025.8 20.8
2015-May-19 19:00N 30°17' W 028°59'0 0.0 1024.8 20.9
2015-May-19 18:00N 30°17' W 028°59'3 0.6 1024.9 20.9
2015-May-19 12:00N 30°14' W 028°58'1 0.8 1025.5 20.8
2015-May-19 11:00N 30°13' W 028°58'1 0.8 1025.5 20.7
2015-May-19 10:00N 30°14' W 028°58'1 1.0 1025.3 20.7
2015-May-19 09:00N 30°13' W 028°57'0 0.0 1025.0 20.7
2015-May-19 07:00N 30°13' W 028°57'0 0.2 1024.0 20.7
2015-May-19 06:00N 30°13' W 028°58'0 0.1 1023.7 20.7
2015-May-19 05:00N 30°13' W 028°58'0 0.0 1023.7 20.7
2015-May-19 04:00N 30°13' W 028°58'3 3.1 1024.0 20.7
2015-May-19 03:00N 30°10' W 028°58'1 0.2 1024.3 20.7
2015-May-18 20:00N 30°09' W 028°57'1 0.6 1023.2 20.8
2015-May-18 18:00N 30°08' W 028°56'0 0.0 1023.0 20.8
2015-May-18 17:00N 30°08' W 028°56'2 0.4 1022.9 20.9
2015-May-18 11:00N 30°06' W 028°56'0 0.0 1023.9 20.7
2015-May-18 10:00N 30°06' W 028°56'0 0.1 1023.7 20.7
2015-May-18 08:00N 30°06' W 028°57'1 0.6 1023.4 20.7
2015-May-18 07:00N 30°06' W 028°56'   1023.0 20.7

Dump ship's entire track history